sensor_id;sensor_type;location;lat;lon;timestamp;P1;durP1;ratioP1;P2;durP2;ratioP2
29908;SDS011;36247;51.952;6.146;2024-03-08T00:00:13;50.42;;;26.20;;
29908;SDS011;36247;51.952;6.146;2024-03-08T00:02:39;55.10;;;26.27;;
29908;SDS011;36247;51.952;6.146;2024-03-08T00:05:05;51.72;;;27.77;;
29908;SDS011;36247;51.952;6.146;2024-03-08T00:07:32;53.28;;;27.30;;
29908;SDS011;36247;51.952;6.146;2024-03-08T00:09:58;50.67;;;26.25;;
29908;SDS011;36247;51.952;6.146;2024-03-08T00:12:23;53.60;;;26.45;;
29908;SDS011;36247;51.952;6.146;2024-03-08T00:14:51;52.85;;;27.63;;
29908;SDS011;36247;51.952;6.146;2024-03-08T00:17:16;57.50;;;26.92;;
29908;SDS011;36247;51.952;6.146;2024-03-08T00:19:41;52.33;;;25.65;;
29908;SDS011;36247;51.952;6.146;2024-03-08T00:22:07;52.10;;;26.95;;
29908;SDS011;36247;51.952;6.146;2024-03-08T00:24:33;51.60;;;24.98;;
29908;SDS011;36247;51.952;6.146;2024-03-08T00:26:58;55.78;;;27.92;;
29908;SDS011;36247;51.952;6.146;2024-03-08T00:29:24;47.00;;;24.45;;
29908;SDS011;36247;51.952;6.146;2024-03-08T00:31:49;55.72;;;26.88;;
29908;SDS011;36247;51.952;6.146;2024-03-08T00:34:15;51.58;;;26.02;;
29908;SDS011;36247;51.952;6.146;2024-03-08T00:36:41;55.88;;;26.02;;
29908;SDS011;36247;51.952;6.146;2024-03-08T00:39:06;53.33;;;26.38;;
29908;SDS011;36247;51.952;6.146;2024-03-08T00:41:32;52.88;;;26.27;;
29908;SDS011;36247;51.952;6.146;2024-03-08T00:43:58;47.90;;;25.38;;
29908;SDS011;36247;51.952;6.146;2024-03-08T00:46:23;48.38;;;25.48;;
29908;SDS011;36247;51.952;6.146;2024-03-08T00:48:49;50.97;;;26.42;;
29908;SDS011;36247;51.952;6.146;2024-03-08T00:51:14;53.78;;;26.77;;
29908;SDS011;36247;51.952;6.146;2024-03-08T00:53:41;63.40;;;29.00;;
29908;SDS011;36247;51.952;6.146;2024-03-08T00:56:07;53.58;;;28.13;;
29908;SDS011;36247;51.952;6.146;2024-03-08T00:58:36;50.05;;;26.60;;
29908;SDS011;36247;51.952;6.146;2024-03-08T01:01:02;47.58;;;25.92;;
29908;SDS011;36247;51.952;6.146;2024-03-08T01:03:27;49.45;;;25.27;;
29908;SDS011;36247;51.952;6.146;2024-03-08T01:05:53;56.63;;;27.55;;
29908;SDS011;36247;51.952;6.146;2024-03-08T01:08:19;47.72;;;25.30;;
29908;SDS011;36247;51.952;6.146;2024-03-08T01:10:44;50.13;;;28.10;;
29908;SDS011;36247;51.952;6.146;2024-03-08T01:13:10;50.20;;;26.77;;
29908;SDS011;36247;51.952;6.146;2024-03-08T01:15:35;52.00;;;26.58;;
29908;SDS011;36247;51.952;6.146;2024-03-08T01:18:01;49.78;;;26.52;;
29908;SDS011;36247;51.952;6.146;2024-03-08T01:20:26;52.38;;;26.40;;
29908;SDS011;36247;51.952;6.146;2024-03-08T01:22:52;49.58;;;27.58;;
29908;SDS011;36247;51.952;6.146;2024-03-08T01:25:18;46.95;;;26.92;;
29908;SDS011;36247;51.952;6.146;2024-03-08T01:27:43;57.22;;;26.77;;
29908;SDS011;36247;51.952;6.146;2024-03-08T01:30:09;51.78;;;26.77;;
29908;SDS011;36247;51.952;6.146;2024-03-08T01:32:34;50.95;;;25.85;;
29908;SDS011;36247;51.952;6.146;2024-03-08T01:35:00;48.20;;;26.58;;
29908;SDS011;36247;51.952;6.146;2024-03-08T01:37:26;52.85;;;26.80;;
29908;SDS011;36247;51.952;6.146;2024-03-08T01:39:51;49.40;;;25.75;;
29908;SDS011;36247;51.952;6.146;2024-03-08T01:42:17;48.92;;;26.70;;
29908;SDS011;36247;51.952;6.146;2024-03-08T01:44:43;45.97;;;25.55;;
29908;SDS011;36247;51.952;6.146;2024-03-08T01:47:09;47.88;;;26.58;;
29908;SDS011;36247;51.952;6.146;2024-03-08T01:49:36;46.05;;;26.95;;
29908;SDS011;36247;51.952;6.146;2024-03-08T01:52:02;51.85;;;27.67;;
29908;SDS011;36247;51.952;6.146;2024-03-08T01:54:28;48.00;;;26.90;;
29908;SDS011;36247;51.952;6.146;2024-03-08T01:56:55;55.78;;;27.30;;
29908;SDS011;36247;51.952;6.146;2024-03-08T01:59:23;51.00;;;27.40;;
29908;SDS011;36247;51.952;6.146;2024-03-08T02:01:49;46.90;;;26.35;;
29908;SDS011;36247;51.952;6.146;2024-03-08T02:04:16;42.47;;;26.10;;
29908;SDS011;36247;51.952;6.146;2024-03-08T02:06:41;45.50;;;27.15;;
29908;SDS011;36247;51.952;6.146;2024-03-08T02:09:07;49.20;;;26.90;;
29908;SDS011;36247;51.952;6.146;2024-03-08T02:11:35;42.63;;;25.25;;
29908;SDS011;36247;51.952;6.146;2024-03-08T02:14:01;51.15;;;28.10;;
29908;SDS011;36247;51.952;6.146;2024-03-08T02:16:26;49.50;;;27.10;;
29908;SDS011;36247;51.952;6.146;2024-03-08T02:18:52;46.10;;;27.00;;
29908;SDS011;36247;51.952;6.146;2024-03-08T02:21:18;55.65;;;27.48;;
29908;SDS011;36247;51.952;6.146;2024-03-08T02:23:44;49.70;;;27.25;;
29908;SDS011;36247;51.952;6.146;2024-03-08T02:26:09;44.85;;;26.08;;
29908;SDS011;36247;51.952;6.146;2024-03-08T02:28:35;50.33;;;26.50;;
29908;SDS011;36247;51.952;6.146;2024-03-08T02:31:01;49.55;;;27.20;;
29908;SDS011;36247;51.952;6.146;2024-03-08T02:33:27;52.03;;;27.92;;
29908;SDS011;36247;51.952;6.146;2024-03-08T02:35:53;47.65;;;26.50;;
29908;SDS011;36247;51.952;6.146;2024-03-08T02:38:21;45.70;;;27.55;;
29908;SDS011;36247;51.952;6.146;2024-03-08T02:40:49;49.35;;;27.45;;
29908;SDS011;36247;51.952;6.146;2024-03-08T02:43:16;50.28;;;28.67;;
29908;SDS011;36247;51.952;6.146;2024-03-08T02:45:43;50.72;;;29.25;;
29908;SDS011;36247;51.952;6.146;2024-03-08T02:48:09;47.65;;;28.70;;
29908;SDS011;36247;51.952;6.146;2024-03-08T02:50:34;53.30;;;30.05;;
29908;SDS011;36247;51.952;6.146;2024-03-08T02:53:01;48.88;;;26.95;;
29908;SDS011;36247;51.952;6.146;2024-03-08T02:55:27;51.72;;;29.23;;
29908;SDS011;36247;51.952;6.146;2024-03-08T02:57:52;50.53;;;28.48;;
29908;SDS011;36247;51.952;6.146;2024-03-08T03:00:19;48.90;;;28.13;;
29908;SDS011;36247;51.952;6.146;2024-03-08T03:02:48;50.85;;;27.65;;
29908;SDS011;36247;51.952;6.146;2024-03-08T03:05:19;57.10;;;28.63;;
29908;SDS011;36247;51.952;6.146;2024-03-08T03:07:45;51.05;;;29.75;;
29908;SDS011;36247;51.952;6.146;2024-03-08T03:10:10;56.33;;;30.35;;
29908;SDS011;36247;51.952;6.146;2024-03-08T03:12:37;54.10;;;28.15;;
29908;SDS011;36247;51.952;6.146;2024-03-08T03:15:03;54.72;;;29.60;;
29908;SDS011;36247;51.952;6.146;2024-03-08T03:17:29;55.83;;;31.02;;
29908;SDS011;36247;51.952;6.146;2024-03-08T03:19:55;49.45;;;27.75;;
29908;SDS011;36247;51.952;6.146;2024-03-08T03:22:20;53.50;;;28.95;;
29908;SDS011;36247;51.952;6.146;2024-03-08T03:24:46;57.30;;;29.58;;
29908;SDS011;36247;51.952;6.146;2024-03-08T03:27:12;54.38;;;29.23;;
29908;SDS011;36247;51.952;6.146;2024-03-08T03:29:39;53.30;;;29.88;;
29908;SDS011;36247;51.952;6.146;2024-03-08T03:32:07;51.88;;;30.23;;
29908;SDS011;36247;51.952;6.146;2024-03-08T03:34:33;55.13;;;29.67;;
29908;SDS011;36247;51.952;6.146;2024-03-08T03:37:01;57.30;;;30.67;;
29908;SDS011;36247;51.952;6.146;2024-03-08T03:39:28;56.00;;;30.38;;
29908;SDS011;36247;51.952;6.146;2024-03-08T03:41:57;54.42;;;29.40;;
29908;SDS011;36247;51.952;6.146;2024-03-08T03:44:22;53.13;;;29.85;;
29908;SDS011;36247;51.952;6.146;2024-03-08T03:46:48;56.17;;;30.10;;
29908;SDS011;36247;51.952;6.146;2024-03-08T03:49:15;56.42;;;30.95;;
29908;SDS011;36247;51.952;6.146;2024-03-08T03:51:42;52.92;;;28.67;;
29908;SDS011;36247;51.952;6.146;2024-03-08T03:54:07;56.63;;;31.08;;
29908;SDS011;36247;51.952;6.146;2024-03-08T03:56:33;52.85;;;29.63;;
29908;SDS011;36247;51.952;6.146;2024-03-08T03:58:58;54.75;;;30.67;;
29908;SDS011;36247;51.952;6.146;2024-03-08T04:01:23;58.63;;;30.90;;
29908;SDS011;36247;51.952;6.146;2024-03-08T04:03:49;51.03;;;29.92;;
29908;SDS011;36247;51.952;6.146;2024-03-08T04:06:14;58.33;;;29.90;;
29908;SDS011;36247;51.952;6.146;2024-03-08T04:08:40;49.92;;;28.90;;
29908;SDS011;36247;51.952;6.146;2024-03-08T04:11:06;52.03;;;29.30;;
29908;SDS011;36247;51.952;6.146;2024-03-08T04:13:33;53.58;;;29.40;;
29908;SDS011;36247;51.952;6.146;2024-03-08T04:15:59;56.92;;;30.13;;
29908;SDS011;36247;51.952;6.146;2024-03-08T04:18:25;51.58;;;30.00;;
29908;SDS011;36247;51.952;6.146;2024-03-08T04:20:51;52.42;;;29.00;;
29908;SDS011;36247;51.952;6.146;2024-03-08T04:23:16;54.58;;;31.42;;
29908;SDS011;36247;51.952;6.146;2024-03-08T04:25:43;57.60;;;29.83;;
29908;SDS011;36247;51.952;6.146;2024-03-08T04:28:09;52.60;;;27.90;;
29908;SDS011;36247;51.952;6.146;2024-03-08T04:30:40;49.10;;;28.48;;
29908;SDS011;36247;51.952;6.146;2024-03-08T04:33:05;54.30;;;28.65;;
29908;SDS011;36247;51.952;6.146;2024-03-08T04:35:32;55.13;;;29.92;;
29908;SDS011;36247;51.952;6.146;2024-03-08T04:37:57;51.65;;;27.30;;
29908;SDS011;36247;51.952;6.146;2024-03-08T04:40:23;54.22;;;30.08;;
29908;SDS011;36247;51.952;6.146;2024-03-08T04:42:49;55.53;;;29.52;;
29908;SDS011;36247;51.952;6.146;2024-03-08T04:45:16;53.60;;;30.92;;
29908;SDS011;36247;51.952;6.146;2024-03-08T04:47:41;54.45;;;29.00;;
29908;SDS011;36247;51.952;6.146;2024-03-08T04:50:07;52.25;;;29.80;;
29908;SDS011;36247;51.952;6.146;2024-03-08T04:52:34;56.65;;;29.95;;
29908;SDS011;36247;51.952;6.146;2024-03-08T04:55:00;52.53;;;30.60;;
29908;SDS011;36247;51.952;6.146;2024-03-08T04:57:27;54.30;;;29.70;;
29908;SDS011;36247;51.952;6.146;2024-03-08T04:59:52;51.83;;;28.52;;
29908;SDS011;36247;51.952;6.146;2024-03-08T05:02:18;56.42;;;30.00;;
29908;SDS011;36247;51.952;6.146;2024-03-08T05:04:43;49.33;;;28.38;;
29908;SDS011;36247;51.952;6.146;2024-03-08T05:07:09;51.80;;;28.77;;
29908;SDS011;36247;51.952;6.146;2024-03-08T05:09:34;56.70;;;30.80;;
29908;SDS011;36247;51.952;6.146;2024-03-08T05:12:01;56.25;;;30.02;;
29908;SDS011;36247;51.952;6.146;2024-03-08T05:14:26;52.70;;;28.58;;
29908;SDS011;36247;51.952;6.146;2024-03-08T05:16:52;57.35;;;29.33;;
29908;SDS011;36247;51.952;6.146;2024-03-08T05:19:17;57.22;;;31.45;;
29908;SDS011;36247;51.952;6.146;2024-03-08T05:21:45;50.22;;;30.10;;
29908;SDS011;36247;51.952;6.146;2024-03-08T05:24:10;57.72;;;32.28;;
29908;SDS011;36247;51.952;6.146;2024-03-08T05:26:36;59.13;;;29.92;;
29908;SDS011;36247;51.952;6.146;2024-03-08T05:29:02;55.20;;;31.48;;
29908;SDS011;36247;51.952;6.146;2024-03-08T05:31:28;57.78;;;31.33;;
29908;SDS011;36247;51.952;6.146;2024-03-08T05:33:54;59.55;;;31.58;;
29908;SDS011;36247;51.952;6.146;2024-03-08T05:36:20;52.38;;;29.75;;
29908;SDS011;36247;51.952;6.146;2024-03-08T05:38:46;55.95;;;29.58;;
29908;SDS011;36247;51.952;6.146;2024-03-08T05:41:12;55.28;;;30.65;;
29908;SDS011;36247;51.952;6.146;2024-03-08T05:43:37;62.35;;;31.23;;
29908;SDS011;36247;51.952;6.146;2024-03-08T05:46:03;53.80;;;30.80;;
29908;SDS011;36247;51.952;6.146;2024-03-08T05:48:32;51.72;;;29.02;;
29908;SDS011;36247;51.952;6.146;2024-03-08T05:50:58;57.05;;;29.75;;
29908;SDS011;36247;51.952;6.146;2024-03-08T05:53:24;52.10;;;29.63;;
29908;SDS011;36247;51.952;6.146;2024-03-08T05:55:50;54.55;;;29.70;;
29908;SDS011;36247;51.952;6.146;2024-03-08T05:58:15;58.70;;;29.60;;
29908;SDS011;36247;51.952;6.146;2024-03-08T06:00:40;55.05;;;29.33;;
29908;SDS011;36247;51.952;6.146;2024-03-08T06:03:06;55.63;;;30.60;;
29908;SDS011;36247;51.952;6.146;2024-03-08T06:05:32;51.97;;;28.98;;
29908;SDS011;36247;51.952;6.146;2024-03-08T06:07:58;51.95;;;28.73;;
29908;SDS011;36247;51.952;6.146;2024-03-08T06:10:24;58.63;;;32.15;;
29908;SDS011;36247;51.952;6.146;2024-03-08T06:12:49;57.25;;;30.65;;
29908;SDS011;36247;51.952;6.146;2024-03-08T06:15:15;64.18;;;30.88;;
29908;SDS011;36247;51.952;6.146;2024-03-08T06:17:41;61.65;;;31.77;;
29908;SDS011;36247;51.952;6.146;2024-03-08T06:20:07;57.22;;;30.42;;
29908;SDS011;36247;51.952;6.146;2024-03-08T06:22:41;57.05;;;30.48;;
29908;SDS011;36247;51.952;6.146;2024-03-08T06:25:16;58.65;;;32.63;;
29908;SDS011;36247;51.952;6.146;2024-03-08T06:27:41;56.38;;;31.20;;
29908;SDS011;36247;51.952;6.146;2024-03-08T06:30:11;55.53;;;31.33;;
29908;SDS011;36247;51.952;6.146;2024-03-08T06:32:37;63.78;;;32.20;;
29908;SDS011;36247;51.952;6.146;2024-03-08T06:35:03;55.38;;;31.40;;
29908;SDS011;36247;51.952;6.146;2024-03-08T06:37:33;58.22;;;32.15;;
29908;SDS011;36247;51.952;6.146;2024-03-08T06:39:59;59.65;;;32.40;;
29908;SDS011;36247;51.952;6.146;2024-03-08T06:42:25;59.08;;;33.05;;
29908;SDS011;36247;51.952;6.146;2024-03-08T06:44:51;61.33;;;33.22;;
29908;SDS011;36247;51.952;6.146;2024-03-08T06:47:20;63.20;;;32.85;;
29908;SDS011;36247;51.952;6.146;2024-03-08T06:49:46;59.88;;;32.15;;
29908;SDS011;36247;51.952;6.146;2024-03-08T06:52:11;61.83;;;32.78;;
29908;SDS011;36247;51.952;6.146;2024-03-08T06:54:37;55.15;;;32.42;;
29908;SDS011;36247;51.952;6.146;2024-03-08T06:57:05;60.33;;;32.85;;
29908;SDS011;36247;51.952;6.146;2024-03-08T06:59:31;60.83;;;33.67;;
29908;SDS011;36247;51.952;6.146;2024-03-08T07:01:57;61.85;;;33.50;;
29908;SDS011;36247;51.952;6.146;2024-03-08T07:04:24;59.72;;;32.28;;
29908;SDS011;36247;51.952;6.146;2024-03-08T07:06:54;61.38;;;32.28;;
29908;SDS011;36247;51.952;6.146;2024-03-08T07:09:19;54.78;;;32.03;;
29908;SDS011;36247;51.952;6.146;2024-03-08T07:11:44;56.10;;;31.90;;
29908;SDS011;36247;51.952;6.146;2024-03-08T07:14:11;61.78;;;32.83;;
29908;SDS011;36247;51.952;6.146;2024-03-08T07:16:37;54.10;;;31.65;;
29908;SDS011;36247;51.952;6.146;2024-03-08T07:19:04;59.58;;;31.23;;
29908;SDS011;36247;51.952;6.146;2024-03-08T07:21:30;54.88;;;32.20;;
29908;SDS011;36247;51.952;6.146;2024-03-08T07:23:56;61.92;;;31.33;;
29908;SDS011;36247;51.952;6.146;2024-03-08T07:26:25;59.30;;;32.10;;
29908;SDS011;36247;51.952;6.146;2024-03-08T07:28:50;60.13;;;31.95;;
29908;SDS011;36247;51.952;6.146;2024-03-08T07:31:15;62.63;;;32.20;;
29908;SDS011;36247;51.952;6.146;2024-03-08T07:33:56;61.58;;;34.55;;
29908;SDS011;36247;51.952;6.146;2024-03-08T07:36:23;56.13;;;31.23;;
29908;SDS011;36247;51.952;6.146;2024-03-08T07:38:49;60.95;;;33.65;;
29908;SDS011;36247;51.952;6.146;2024-03-08T07:41:15;57.55;;;31.88;;
29908;SDS011;36247;51.952;6.146;2024-03-08T07:43:41;59.33;;;32.95;;
29908;SDS011;36247;51.952;6.146;2024-03-08T07:46:06;55.92;;;34.03;;
29908;SDS011;36247;51.952;6.146;2024-03-08T07:48:34;56.97;;;32.88;;
29908;SDS011;36247;51.952;6.146;2024-03-08T07:51:01;55.45;;;32.15;;
29908;SDS011;36247;51.952;6.146;2024-03-08T07:53:28;50.03;;;29.55;;
29908;SDS011;36247;51.952;6.146;2024-03-08T07:55:53;57.55;;;32.63;;
29908;SDS011;36247;51.952;6.146;2024-03-08T07:58:19;56.35;;;31.27;;
29908;SDS011;36247;51.952;6.146;2024-03-08T08:00:44;58.47;;;32.35;;
29908;SDS011;36247;51.952;6.146;2024-03-08T08:03:09;46.55;;;29.70;;
29908;SDS011;36247;51.952;6.146;2024-03-08T08:05:35;51.65;;;29.48;;
29908;SDS011;36247;51.952;6.146;2024-03-08T08:08:02;47.92;;;29.38;;
29908;SDS011;36247;51.952;6.146;2024-03-08T08:10:31;55.92;;;29.42;;
29908;SDS011;36247;51.952;6.146;2024-03-08T08:12:57;51.88;;;29.83;;
29908;SDS011;36247;51.952;6.146;2024-03-08T08:15:23;52.20;;;29.95;;
29908;SDS011;36247;51.952;6.146;2024-03-08T08:17:48;50.83;;;30.00;;
29908;SDS011;36247;51.952;6.146;2024-03-08T08:20:14;44.92;;;29.10;;
29908;SDS011;36247;51.952;6.146;2024-03-08T08:22:40;48.58;;;28.50;;
29908;SDS011;36247;51.952;6.146;2024-03-08T08:25:06;53.90;;;29.08;;
29908;SDS011;36247;51.952;6.146;2024-03-08T08:27:33;44.83;;;28.58;;
29908;SDS011;36247;51.952;6.146;2024-03-08T08:29:58;50.67;;;29.10;;
29908;SDS011;36247;51.952;6.146;2024-03-08T08:32:24;46.17;;;28.27;;
29908;SDS011;36247;51.952;6.146;2024-03-08T08:34:49;48.95;;;30.02;;
29908;SDS011;36247;51.952;6.146;2024-03-08T08:37:15;51.17;;;30.35;;
29908;SDS011;36247;51.952;6.146;2024-03-08T08:39:41;46.08;;;27.65;;
29908;SDS011;36247;51.952;6.146;2024-03-08T08:42:07;48.58;;;28.85;;
29908;SDS011;36247;51.952;6.146;2024-03-08T08:44:34;52.72;;;29.50;;
29908;SDS011;36247;51.952;6.146;2024-03-08T08:47:00;47.63;;;28.75;;
29908;SDS011;36247;51.952;6.146;2024-03-08T08:49:26;46.17;;;29.05;;
29908;SDS011;36247;51.952;6.146;2024-03-08T08:51:52;48.00;;;30.48;;
29908;SDS011;36247;51.952;6.146;2024-03-08T08:54:18;47.17;;;28.30;;
29908;SDS011;36247;51.952;6.146;2024-03-08T08:56:44;46.88;;;28.83;;
29908;SDS011;36247;51.952;6.146;2024-03-08T08:59:10;48.58;;;28.67;;
29908;SDS011;36247;51.952;6.146;2024-03-08T09:01:39;48.60;;;29.55;;
29908;SDS011;36247;51.952;6.146;2024-03-08T09:04:04;42.72;;;28.88;;
29908;SDS011;36247;51.952;6.146;2024-03-08T09:06:30;47.90;;;28.60;;
29908;SDS011;36247;51.952;6.146;2024-03-08T09:08:56;46.38;;;28.20;;
29908;SDS011;36247;51.952;6.146;2024-03-08T09:11:21;44.92;;;27.85;;
29908;SDS011;36247;51.952;6.146;2024-03-08T09:13:46;45.13;;;28.67;;
29908;SDS011;36247;51.952;6.146;2024-03-08T09:16:12;48.05;;;28.05;;
29908;SDS011;36247;51.952;6.146;2024-03-08T09:18:38;42.00;;;27.85;;
29908;SDS011;36247;51.952;6.146;2024-03-08T09:21:03;46.47;;;27.48;;
29908;SDS011;36247;51.952;6.146;2024-03-08T09:23:30;42.28;;;25.67;;
29908;SDS011;36247;51.952;6.146;2024-03-08T09:25:56;44.25;;;27.38;;
29908;SDS011;36247;51.952;6.146;2024-03-08T09:28:24;47.35;;;27.70;;
29908;SDS011;36247;51.952;6.146;2024-03-08T09:30:50;38.42;;;25.33;;
29908;SDS011;36247;51.952;6.146;2024-03-08T09:33:15;40.72;;;26.75;;
29908;SDS011;36247;51.952;6.146;2024-03-08T09:35:45;42.63;;;27.20;;
29908;SDS011;36247;51.952;6.146;2024-03-08T09:38:12;43.67;;;26.23;;
29908;SDS011;36247;51.952;6.146;2024-03-08T09:40:38;40.33;;;26.40;;
29908;SDS011;36247;51.952;6.146;2024-03-08T09:43:06;42.72;;;26.73;;
29908;SDS011;36247;51.952;6.146;2024-03-08T09:45:32;43.50;;;27.55;;
29908;SDS011;36247;51.952;6.146;2024-03-08T09:48:01;47.30;;;26.42;;
29908;SDS011;36247;51.952;6.146;2024-03-08T09:50:26;37.72;;;25.63;;
29908;SDS011;36247;51.952;6.146;2024-03-08T09:52:54;43.97;;;27.52;;
29908;SDS011;36247;51.952;6.146;2024-03-08T09:55:22;41.58;;;25.90;;
29908;SDS011;36247;51.952;6.146;2024-03-08T09:57:47;41.95;;;26.25;;
29908;SDS011;36247;51.952;6.146;2024-03-08T10:00:34;43.15;;;26.35;;
29908;SDS011;36247;51.952;6.146;2024-03-08T10:03:02;39.22;;;25.48;;
29908;SDS011;36247;51.952;6.146;2024-03-08T10:05:28;43.85;;;26.85;;
29908;SDS011;36247;51.952;6.146;2024-03-08T10:07:55;44.25;;;25.02;;
29908;SDS011;36247;51.952;6.146;2024-03-08T10:10:20;41.75;;;26.15;;
29908;SDS011;36247;51.952;6.146;2024-03-08T10:12:46;44.40;;;26.35;;
29908;SDS011;36247;51.952;6.146;2024-03-08T10:15:15;38.90;;;25.58;;
29908;SDS011;36247;51.952;6.146;2024-03-08T10:17:41;39.08;;;26.02;;
29908;SDS011;36247;51.952;6.146;2024-03-08T10:20:13;39.80;;;25.95;;
29908;SDS011;36247;51.952;6.146;2024-03-08T10:22:40;40.92;;;25.70;;
29908;SDS011;36247;51.952;6.146;2024-03-08T10:25:09;33.70;;;23.80;;
29908;SDS011;36247;51.952;6.146;2024-03-08T10:27:36;32.97;;;22.85;;
29908;SDS011;36247;51.952;6.146;2024-03-08T10:30:02;29.88;;;21.95;;
29908;SDS011;36247;51.952;6.146;2024-03-08T10:32:28;32.45;;;22.10;;
29908;SDS011;36247;51.952;6.146;2024-03-08T10:34:53;36.28;;;22.48;;
29908;SDS011;36247;51.952;6.146;2024-03-08T10:37:21;33.17;;;21.65;;
29908;SDS011;36247;51.952;6.146;2024-03-08T10:40:03;37.15;;;24.08;;
29908;SDS011;36247;51.952;6.146;2024-03-08T10:42:41;33.80;;;23.08;;
29908;SDS011;36247;51.952;6.146;2024-03-08T10:45:36;33.10;;;23.35;;
29908;SDS011;36247;51.952;6.146;2024-03-08T10:48:26;29.00;;;21.10;;
29908;SDS011;36247;51.952;6.146;2024-03-08T10:50:59;29.95;;;22.10;;
29908;SDS011;36247;51.952;6.146;2024-03-08T10:53:27;30.83;;;21.60;;
29908;SDS011;36247;51.952;6.146;2024-03-08T10:55:56;30.98;;;22.05;;
29908;SDS011;36247;51.952;6.146;2024-03-08T10:58:23;30.75;;;21.50;;
29908;SDS011;36247;51.952;6.146;2024-03-08T11:00:57;27.80;;;20.27;;
29908;SDS011;36247;51.952;6.146;2024-03-08T11:06:08;31.50;;;20.83;;
29908;SDS011;36247;51.952;6.146;2024-03-08T11:08:37;31.20;;;21.65;;
29908;SDS011;36247;51.952;6.146;2024-03-08T11:11:04;28.55;;;20.27;;
29908;SDS011;36247;51.952;6.146;2024-03-08T11:13:39;26.33;;;20.17;;
29908;SDS011;36247;51.952;6.146;2024-03-08T11:16:11;27.00;;;19.95;;
29908;SDS011;36247;51.952;6.146;2024-03-08T11:18:37;27.25;;;20.20;;
29908;SDS011;36247;51.952;6.146;2024-03-08T11:21:08;28.20;;;20.45;;
29908;SDS011;36247;51.952;6.146;2024-03-08T11:23:37;28.85;;;20.38;;
29908;SDS011;36247;51.952;6.146;2024-03-08T11:26:17;30.17;;;22.17;;
29908;SDS011;36247;51.952;6.146;2024-03-08T11:28:45;28.52;;;19.48;;
29908;SDS011;36247;51.952;6.146;2024-03-08T11:33:39;29.15;;;21.08;;
29908;SDS011;36247;51.952;6.146;2024-03-08T11:36:19;28.63;;;21.13;;
29908;SDS011;36247;51.952;6.146;2024-03-08T11:38:47;25.45;;;18.58;;
29908;SDS011;36247;51.952;6.146;2024-03-08T11:41:21;31.83;;;19.90;;
29908;SDS011;36247;51.952;6.146;2024-03-08T11:43:48;27.40;;;20.05;;
29908;SDS011;36247;51.952;6.146;2024-03-08T11:46:15;26.52;;;19.67;;
29908;SDS011;36247;51.952;6.146;2024-03-08T11:48:42;25.95;;;19.65;;
29908;SDS011;36247;51.952;6.146;2024-03-08T11:51:13;25.20;;;19.88;;
29908;SDS011;36247;51.952;6.146;2024-03-08T11:53:40;28.38;;;19.25;;
29908;SDS011;36247;51.952;6.146;2024-03-08T11:58:36;24.30;;;18.83;;
29908;SDS011;36247;51.952;6.146;2024-03-08T12:01:09;24.30;;;17.88;;
29908;SDS011;36247;51.952;6.146;2024-03-08T12:03:39;26.08;;;18.23;;
29908;SDS011;36247;51.952;6.146;2024-03-08T12:06:04;28.33;;;19.48;;
29908;SDS011;36247;51.952;6.146;2024-03-08T12:08:30;26.10;;;18.02;;
29908;SDS011;36247;51.952;6.146;2024-03-08T12:10:57;28.80;;;19.35;;
29908;SDS011;36247;51.952;6.146;2024-03-08T12:13:34;28.27;;;20.05;;
29908;SDS011;36247;51.952;6.146;2024-03-08T12:16:03;27.55;;;19.63;;
29908;SDS011;36247;51.952;6.146;2024-03-08T12:18:38;25.40;;;19.08;;
29908;SDS011;36247;51.952;6.146;2024-03-08T12:21:04;27.40;;;19.42;;
29908;SDS011;36247;51.952;6.146;2024-03-08T12:23:33;25.27;;;19.38;;
29908;SDS011;36247;51.952;6.146;2024-03-08T12:26:08;28.55;;;20.52;;
29908;SDS011;36247;51.952;6.146;2024-03-08T12:28:39;29.45;;;21.45;;
29908;SDS011;36247;51.952;6.146;2024-03-08T12:31:06;28.73;;;20.27;;
29908;SDS011;36247;51.952;6.146;2024-03-08T12:33:56;30.58;;;20.15;;
29908;SDS011;36247;51.952;6.146;2024-03-08T12:36:24;30.23;;;21.75;;
29908;SDS011;36247;51.952;6.146;2024-03-08T12:38:50;27.60;;;19.85;;
29908;SDS011;36247;51.952;6.146;2024-03-08T12:41:17;29.50;;;20.77;;
29908;SDS011;36247;51.952;6.146;2024-03-08T12:43:44;29.35;;;20.80;;
29908;SDS011;36247;51.952;6.146;2024-03-08T12:48:42;27.73;;;20.50;;
29908;SDS011;36247;51.952;6.146;2024-03-08T12:51:15;30.50;;;21.92;;
29908;SDS011;36247;51.952;6.146;2024-03-08T12:53:43;28.27;;;20.92;;
29908;SDS011;36247;51.952;6.146;2024-03-08T12:56:12;31.90;;;21.90;;
29908;SDS011;36247;51.952;6.146;2024-03-08T12:58:39;33.05;;;21.70;;
29908;SDS011;36247;51.952;6.146;2024-03-08T13:01:05;29.30;;;21.85;;
29908;SDS011;36247;51.952;6.146;2024-03-08T13:03:33;33.42;;;21.98;;
29908;SDS011;36247;51.952;6.146;2024-03-08T13:06:04;28.98;;;20.67;;
29908;SDS011;36247;51.952;6.146;2024-03-08T13:08:36;33.47;;;20.90;;
29908;SDS011;36247;51.952;6.146;2024-03-08T13:11:05;29.50;;;20.65;;
29908;SDS011;36247;51.952;6.146;2024-03-08T13:13:32;29.65;;;20.70;;
29908;SDS011;36247;51.952;6.146;2024-03-08T13:16:00;31.05;;;20.55;;
29908;SDS011;36247;51.952;6.146;2024-03-08T13:18:26;32.42;;;21.27;;
29908;SDS011;36247;51.952;6.146;2024-03-08T13:20:53;27.35;;;20.17;;
29908;SDS011;36247;51.952;6.146;2024-03-08T13:23:19;31.58;;;22.13;;
29908;SDS011;36247;51.952;6.146;2024-03-08T13:25:44;28.92;;;20.42;;
29908;SDS011;36247;51.952;6.146;2024-03-08T13:28:12;27.65;;;20.40;;
29908;SDS011;36247;51.952;6.146;2024-03-08T13:30:38;29.27;;;19.45;;
29908;SDS011;36247;51.952;6.146;2024-03-08T13:33:04;32.20;;;21.30;;
29908;SDS011;36247;51.952;6.146;2024-03-08T13:35:30;27.67;;;19.75;;
29908;SDS011;36247;51.952;6.146;2024-03-08T13:37:56;32.00;;;21.48;;
29908;SDS011;36247;51.952;6.146;2024-03-08T13:40:21;27.10;;;19.02;;
29908;SDS011;36247;51.952;6.146;2024-03-08T13:42:47;26.50;;;19.67;;
29908;SDS011;36247;51.952;6.146;2024-03-08T13:45:14;29.95;;;20.63;;
29908;SDS011;36247;51.952;6.146;2024-03-08T13:47:43;34.90;;;22.08;;
29908;SDS011;36247;51.952;6.146;2024-03-08T13:50:09;27.58;;;20.63;;
29908;SDS011;36247;51.952;6.146;2024-03-08T13:52:41;25.77;;;19.83;;
29908;SDS011;36247;51.952;6.146;2024-03-08T13:55:09;26.05;;;19.23;;
29908;SDS011;36247;51.952;6.146;2024-03-08T13:57:34;28.20;;;20.55;;
29908;SDS011;36247;51.952;6.146;2024-03-08T13:59:59;27.17;;;19.95;;
29908;SDS011;36247;51.952;6.146;2024-03-08T14:02:25;27.70;;;20.55;;
29908;SDS011;36247;51.952;6.146;2024-03-08T14:04:53;26.17;;;20.67;;
29908;SDS011;36247;51.952;6.146;2024-03-08T14:07:20;28.27;;;20.00;;
29908;SDS011;36247;51.952;6.146;2024-03-08T14:09:45;27.15;;;19.77;;
29908;SDS011;36247;51.952;6.146;2024-03-08T14:12:11;31.38;;;21.23;;
29908;SDS011;36247;51.952;6.146;2024-03-08T14:14:36;29.90;;;21.13;;
29908;SDS011;36247;51.952;6.146;2024-03-08T14:17:02;34.35;;;24.02;;
29908;SDS011;36247;51.952;6.146;2024-03-08T14:19:29;28.83;;;20.67;;
29908;SDS011;36247;51.952;6.146;2024-03-08T14:21:56;28.95;;;20.15;;
29908;SDS011;36247;51.952;6.146;2024-03-08T14:24:21;25.88;;;20.08;;
29908;SDS011;36247;51.952;6.146;2024-03-08T14:26:49;27.38;;;20.27;;
29908;SDS011;36247;51.952;6.146;2024-03-08T14:29:14;31.35;;;22.33;;